sensor_id;sensor_type;location;lat;lon;timestamp;P1;durP1;ratioP1;P2;durP2;ratioP2
14611;SDS011;7392;52.078;11.650;2022-11-30T00:01:21;3.97;;;3.40;;
14611;SDS011;7392;52.078;11.650;2022-11-30T00:03:53;3.23;;;2.90;;
14611;SDS011;7392;52.078;11.650;2022-11-30T00:06:22;3.87;;;3.30;;
14611;SDS011;7392;52.078;11.650;2022-11-30T00:08:51;4.00;;;3.47;;
14611;SDS011;7392;52.078;11.650;2022-11-30T00:11:19;4.23;;;3.27;;
14611;SDS011;7392;52.078;11.650;2022-11-30T00:13:48;3.83;;;3.40;;
14611;SDS011;7392;52.078;11.650;2022-11-30T00:16:16;4.03;;;3.30;;
14611;SDS011;7392;52.078;11.650;2022-11-30T00:18:44;4.63;;;3.53;;
14611;SDS011;7392;52.078;11.650;2022-11-30T00:21:13;4.10;;;3.67;;
14611;SDS011;7392;52.078;11.650;2022-11-30T00:23:42;5.00;;;3.80;;
14611;SDS011;7392;52.078;11.650;2022-11-30T00:26:11;4.30;;;3.53;;
14611;SDS011;7392;52.078;11.650;2022-11-30T00:28:41;4.07;;;3.07;;
14611;SDS011;7392;52.078;11.650;2022-11-30T00:31:11;3.80;;;3.20;;
14611;SDS011;7392;52.078;11.650;2022-11-30T00:33:39;4.00;;;3.60;;
14611;SDS011;7392;52.078;11.650;2022-11-30T00:36:09;4.00;;;3.33;;
14611;SDS011;7392;52.078;11.650;2022-11-30T00:38:40;4.77;;;4.10;;
14611;SDS011;7392;52.078;11.650;2022-11-30T00:41:07;6.20;;;4.80;;
14611;SDS011;7392;52.078;11.650;2022-11-30T00:43:36;8.13;;;6.23;;
14611;SDS011;7392;52.078;11.650;2022-11-30T00:46:04;8.50;;;6.03;;
14611;SDS011;7392;52.078;11.650;2022-11-30T00:48:34;8.47;;;6.30;;
14611;SDS011;7392;52.078;11.650;2022-11-30T00:51:02;7.03;;;5.63;;
14611;SDS011;7392;52.078;11.650;2022-11-30T00:53:31;7.40;;;5.70;;
14611;SDS011;7392;52.078;11.650;2022-11-30T00:56:00;7.83;;;5.87;;
14611;SDS011;7392;52.078;11.650;2022-11-30T00:58:28;7.67;;;5.40;;
14611;SDS011;7392;52.078;11.650;2022-11-30T01:00:56;7.67;;;5.73;;
14611;SDS011;7392;52.078;11.650;2022-11-30T01:03:23;5.83;;;5.00;;
14611;SDS011;7392;52.078;11.650;2022-11-30T01:05:51;7.40;;;6.03;;
14611;SDS011;7392;52.078;11.650;2022-11-30T01:08:19;7.63;;;6.00;;
14611;SDS011;7392;52.078;11.650;2022-11-30T01:10:47;9.13;;;6.67;;
14611;SDS011;7392;52.078;11.650;2022-11-30T01:13:21;7.50;;;6.07;;
14611;SDS011;7392;52.078;11.650;2022-11-30T01:15:49;7.43;;;5.93;;
14611;SDS011;7392;52.078;11.650;2022-11-30T01:18:17;6.93;;;5.93;;
14611;SDS011;7392;52.078;11.650;2022-11-30T01:20:45;10.13;;;7.37;;
14611;SDS011;7392;52.078;11.650;2022-11-30T01:23:12;9.00;;;6.60;;
14611;SDS011;7392;52.078;11.650;2022-11-30T01:25:40;11.67;;;8.57;;
14611;SDS011;7392;52.078;11.650;2022-11-30T01:28:08;13.80;;;9.77;;
14611;SDS011;7392;52.078;11.650;2022-11-30T01:30:38;16.30;;;11.30;;
14611;SDS011;7392;52.078;11.650;2022-11-30T01:33:06;16.63;;;12.20;;
14611;SDS011;7392;52.078;11.650;2022-11-30T01:35:34;15.53;;;11.13;;
14611;SDS011;7392;52.078;11.650;2022-11-30T01:38:01;17.10;;;12.17;;
14611;SDS011;7392;52.078;11.650;2022-11-30T01:40:29;14.43;;;11.10;;
14611;SDS011;7392;52.078;11.650;2022-11-30T01:42:57;14.63;;;11.00;;
14611;SDS011;7392;52.078;11.650;2022-11-30T01:45:25;15.03;;;11.10;;
14611;SDS011;7392;52.078;11.650;2022-11-30T01:47:54;16.33;;;12.23;;
14611;SDS011;7392;52.078;11.650;2022-11-30T01:50:24;17.13;;;12.23;;
14611;SDS011;7392;52.078;11.650;2022-11-30T01:52:56;19.90;;;13.60;;
14611;SDS011;7392;52.078;11.650;2022-11-30T01:55:26;21.07;;;15.03;;
14611;SDS011;7392;52.078;11.650;2022-11-30T01:57:56;19.43;;;14.90;;
14611;SDS011;7392;52.078;11.650;2022-11-30T02:00:28;21.97;;;14.87;;
14611;SDS011;7392;52.078;11.650;2022-11-30T02:02:59;20.67;;;14.20;;
14611;SDS011;7392;52.078;11.650;2022-11-30T02:05:31;22.83;;;15.83;;
14611;SDS011;7392;52.078;11.650;2022-11-30T02:08:02;22.73;;;15.73;;
14611;SDS011;7392;52.078;11.650;2022-11-30T02:10:31;23.53;;;16.57;;
14611;SDS011;7392;52.078;11.650;2022-11-30T02:13:08;24.97;;;16.70;;
14611;SDS011;7392;52.078;11.650;2022-11-30T02:15:48;21.73;;;15.37;;
14611;SDS011;7392;52.078;11.650;2022-11-30T02:18:27;24.03;;;16.50;;
14611;SDS011;7392;52.078;11.650;2022-11-30T02:20:59;19.53;;;14.97;;
14611;SDS011;7392;52.078;11.650;2022-11-30T02:23:36;21.43;;;14.83;;
14611;SDS011;7392;52.078;11.650;2022-11-30T02:26:29;18.10;;;13.00;;
14611;SDS011;7392;52.078;11.650;2022-11-30T02:29:18;15.77;;;11.27;;
14611;SDS011;7392;52.078;11.650;2022-11-30T02:31:49;17.23;;;12.83;;
14611;SDS011;7392;52.078;11.650;2022-11-30T02:34:24;19.00;;;12.87;;
14611;SDS011;7392;52.078;11.650;2022-11-30T02:36:54;19.33;;;13.40;;
14611;SDS011;7392;52.078;11.650;2022-11-30T02:39:25;22.13;;;14.70;;
14611;SDS011;7392;52.078;11.650;2022-11-30T02:41:53;21.20;;;14.57;;
14611;SDS011;7392;52.078;11.650;2022-11-30T02:44:22;24.30;;;15.03;;
14611;SDS011;7392;52.078;11.650;2022-11-30T02:46:59;27.37;;;17.47;;
14611;SDS011;7392;52.078;11.650;2022-11-30T02:49:38;32.73;;;20.80;;
14611;SDS011;7392;52.078;11.650;2022-11-30T02:52:13;36.13;;;21.43;;
14611;SDS011;7392;52.078;11.650;2022-11-30T02:54:42;33.43;;;21.13;;
14611;SDS011;7392;52.078;11.650;2022-11-30T02:57:10;33.73;;;20.87;;
14611;SDS011;7392;52.078;11.650;2022-11-30T02:59:39;30.53;;;19.00;;
14611;SDS011;7392;52.078;11.650;2022-11-30T03:02:07;29.27;;;18.30;;
14611;SDS011;7392;52.078;11.650;2022-11-30T03:04:35;29.17;;;17.30;;
14611;SDS011;7392;52.078;11.650;2022-11-30T03:07:03;26.80;;;16.53;;
14611;SDS011;7392;52.078;11.650;2022-11-30T03:09:31;23.27;;;15.93;;
14611;SDS011;7392;52.078;11.650;2022-11-30T03:11:58;24.07;;;15.53;;
14611;SDS011;7392;52.078;11.650;2022-11-30T03:14:27;24.50;;;15.07;;
14611;SDS011;7392;52.078;11.650;2022-11-30T03:16:56;30.20;;;17.43;;
14611;SDS011;7392;52.078;11.650;2022-11-30T03:19:23;29.07;;;17.90;;
14611;SDS011;7392;52.078;11.650;2022-11-30T03:21:51;28.63;;;17.53;;
14611;SDS011;7392;52.078;11.650;2022-11-30T03:24:19;26.07;;;16.60;;
14611;SDS011;7392;52.078;11.650;2022-11-30T03:26:47;26.87;;;17.07;;
14611;SDS011;7392;52.078;11.650;2022-11-30T03:29:15;27.47;;;17.57;;
14611;SDS011;7392;52.078;11.650;2022-11-30T03:31:43;28.20;;;16.00;;
14611;SDS011;7392;52.078;11.650;2022-11-30T03:34:12;23.70;;;15.20;;
14611;SDS011;7392;52.078;11.650;2022-11-30T03:36:40;27.33;;;17.23;;
14611;SDS011;7392;52.078;11.650;2022-11-30T03:39:07;33.50;;;18.83;;
14611;SDS011;7392;52.078;11.650;2022-11-30T03:41:35;34.20;;;20.80;;
14611;SDS011;7392;52.078;11.650;2022-11-30T03:44:03;32.60;;;19.60;;
14611;SDS011;7392;52.078;11.650;2022-11-30T03:46:31;33.77;;;19.13;;
14611;SDS011;7392;52.078;11.650;2022-11-30T03:48:59;36.43;;;20.87;;
14611;SDS011;7392;52.078;11.650;2022-11-30T03:51:28;33.80;;;20.60;;
14611;SDS011;7392;52.078;11.650;2022-11-30T03:53:56;30.30;;;18.40;;
14611;SDS011;7392;52.078;11.650;2022-11-30T03:56:24;28.93;;;18.63;;
14611;SDS011;7392;52.078;11.650;2022-11-30T03:58:52;26.30;;;16.30;;
14611;SDS011;7392;52.078;11.650;2022-11-30T04:01:20;25.67;;;16.17;;
14611;SDS011;7392;52.078;11.650;2022-11-30T04:03:49;22.63;;;14.27;;
14611;SDS011;7392;52.078;11.650;2022-11-30T04:06:18;21.40;;;14.43;;
14611;SDS011;7392;52.078;11.650;2022-11-30T04:08:48;24.10;;;15.07;;
14611;SDS011;7392;52.078;11.650;2022-11-30T04:11:17;21.50;;;13.83;;
14611;SDS011;7392;52.078;11.650;2022-11-30T04:13:44;25.57;;;15.90;;
14611;SDS011;7392;52.078;11.650;2022-11-30T04:16:12;26.17;;;16.37;;
14611;SDS011;7392;52.078;11.650;2022-11-30T04:18:40;24.93;;;14.67;;
14611;SDS011;7392;52.078;11.650;2022-11-30T04:21:08;26.13;;;15.37;;
14611;SDS011;7392;52.078;11.650;2022-11-30T04:23:37;22.53;;;14.50;;
14611;SDS011;7392;52.078;11.650;2022-11-30T04:26:09;19.27;;;13.13;;
14611;SDS011;7392;52.078;11.650;2022-11-30T04:28:38;20.23;;;13.30;;
14611;SDS011;7392;52.078;11.650;2022-11-30T04:31:06;16.90;;;11.30;;
14611;SDS011;7392;52.078;11.650;2022-11-30T04:33:35;16.67;;;11.10;;
14611;SDS011;7392;52.078;11.650;2022-11-30T04:36:04;15.13;;;10.00;;
14611;SDS011;7392;52.078;11.650;2022-11-30T04:38:35;12.87;;;9.50;;
14611;SDS011;7392;52.078;11.650;2022-11-30T04:41:08;13.17;;;9.80;;
14611;SDS011;7392;52.078;11.650;2022-11-30T04:43:36;12.23;;;9.13;;
14611;SDS011;7392;52.078;11.650;2022-11-30T04:46:04;11.77;;;9.17;;
14611;SDS011;7392;52.078;11.650;2022-11-30T04:48:32;10.20;;;7.77;;
14611;SDS011;7392;52.078;11.650;2022-11-30T04:51:00;11.10;;;8.17;;
14611;SDS011;7392;52.078;11.650;2022-11-30T04:53:29;12.07;;;8.77;;
14611;SDS011;7392;52.078;11.650;2022-11-30T04:55:57;15.73;;;10.40;;
14611;SDS011;7392;52.078;11.650;2022-11-30T04:58:26;15.97;;;11.20;;
14611;SDS011;7392;52.078;11.650;2022-11-30T05:00:53;17.33;;;12.43;;
14611;SDS011;7392;52.078;11.650;2022-11-30T05:03:21;17.30;;;11.97;;
14611;SDS011;7392;52.078;11.650;2022-11-30T05:05:49;16.90;;;12.80;;
14611;SDS011;7392;52.078;11.650;2022-11-30T05:08:17;20.03;;;15.40;;
14611;SDS011;7392;52.078;11.650;2022-11-30T05:10:49;23.67;;;16.30;;
14611;SDS011;7392;52.078;11.650;2022-11-30T05:13:18;22.33;;;15.77;;
14611;SDS011;7392;52.078;11.650;2022-11-30T05:15:48;26.23;;;17.63;;
14611;SDS011;7392;52.078;11.650;2022-11-30T05:18:16;25.40;;;17.47;;
14611;SDS011;7392;52.078;11.650;2022-11-30T05:20:45;23.97;;;16.43;;
14611;SDS011;7392;52.078;11.650;2022-11-30T05:23:14;23.90;;;16.83;;
14611;SDS011;7392;52.078;11.650;2022-11-30T05:25:43;26.27;;;18.30;;
14611;SDS011;7392;52.078;11.650;2022-11-30T05:28:11;33.20;;;19.47;;
14611;SDS011;7392;52.078;11.650;2022-11-30T05:30:39;28.10;;;18.27;;
14611;SDS011;7392;52.078;11.650;2022-11-30T05:33:10;27.93;;;18.37;;
14611;SDS011;7392;52.078;11.650;2022-11-30T05:35:38;29.57;;;19.17;;
14611;SDS011;7392;52.078;11.650;2022-11-30T05:38:06;27.33;;;19.43;;
14611;SDS011;7392;52.078;11.650;2022-11-30T05:40:33;26.17;;;18.33;;
14611;SDS011;7392;52.078;11.650;2022-11-30T05:43:02;26.40;;;18.30;;
14611;SDS011;7392;52.078;11.650;2022-11-30T05:45:31;28.80;;;18.57;;
14611;SDS011;7392;52.078;11.650;2022-11-30T05:47:58;28.10;;;18.63;;
14611;SDS011;7392;52.078;11.650;2022-11-30T05:50:27;28.33;;;18.17;;
14611;SDS011;7392;52.078;11.650;2022-11-30T05:52:56;27.07;;;19.00;;
14611;SDS011;7392;52.078;11.650;2022-11-30T05:55:26;30.57;;;19.93;;
14611;SDS011;7392;52.078;11.650;2022-11-30T05:57:56;25.60;;;17.50;;
14611;SDS011;7392;52.078;11.650;2022-11-30T06:00:24;23.67;;;16.70;;
14611;SDS011;7392;52.078;11.650;2022-11-30T06:02:54;26.00;;;17.20;;
14611;SDS011;7392;52.078;11.650;2022-11-30T06:05:23;24.73;;;17.27;;
14611;SDS011;7392;52.078;11.650;2022-11-30T06:07:53;25.00;;;18.27;;
14611;SDS011;7392;52.078;11.650;2022-11-30T06:10:21;28.17;;;18.80;;
14611;SDS011;7392;52.078;11.650;2022-11-30T06:12:50;25.93;;;17.33;;
14611;SDS011;7392;52.078;11.650;2022-11-30T06:15:18;22.77;;;15.90;;
14611;SDS011;7392;52.078;11.650;2022-11-30T06:17:46;22.00;;;15.47;;
14611;SDS011;7392;52.078;11.650;2022-11-30T06:20:14;22.13;;;15.43;;
14611;SDS011;7392;52.078;11.650;2022-11-30T06:22:43;18.70;;;13.90;;
14611;SDS011;7392;52.078;11.650;2022-11-30T06:25:13;17.67;;;12.50;;
14611;SDS011;7392;52.078;11.650;2022-11-30T06:27:41;18.33;;;13.03;;
14611;SDS011;7392;52.078;11.650;2022-11-30T06:30:09;17.57;;;13.10;;
14611;SDS011;7392;52.078;11.650;2022-11-30T06:32:38;15.10;;;11.53;;
14611;SDS011;7392;52.078;11.650;2022-11-30T06:35:06;19.57;;;12.50;;
14611;SDS011;7392;52.078;11.650;2022-11-30T06:37:34;16.37;;;11.97;;
14611;SDS011;7392;52.078;11.650;2022-11-30T06:40:02;15.50;;;11.43;;
14611;SDS011;7392;52.078;11.650;2022-11-30T06:42:35;13.53;;;10.80;;
14611;SDS011;7392;52.078;11.650;2022-11-30T06:45:04;14.53;;;10.77;;
14611;SDS011;7392;52.078;11.650;2022-11-30T06:47:33;14.00;;;10.77;;
14611;SDS011;7392;52.078;11.650;2022-11-30T06:50:00;12.67;;;9.90;;
14611;SDS011;7392;52.078;11.650;2022-11-30T06:52:28;14.73;;;10.30;;
14611;SDS011;7392;52.078;11.650;2022-11-30T06:54:56;15.57;;;10.97;;
14611;SDS011;7392;52.078;11.650;2022-11-30T06:57:25;17.53;;;12.03;;
14611;SDS011;7392;52.078;11.650;2022-11-30T06:59:54;20.77;;;14.07;;
14611;SDS011;7392;52.078;11.650;2022-11-30T07:02:23;19.83;;;13.70;;
14611;SDS011;7392;52.078;11.650;2022-11-30T07:04:50;18.23;;;13.47;;
14611;SDS011;7392;52.078;11.650;2022-11-30T07:07:18;17.03;;;12.37;;
14611;SDS011;7392;52.078;11.650;2022-11-30T07:09:46;18.37;;;13.20;;
14611;SDS011;7392;52.078;11.650;2022-11-30T07:12:14;16.97;;;11.53;;
14611;SDS011;7392;52.078;11.650;2022-11-30T07:14:42;16.70;;;12.13;;
14611;SDS011;7392;52.078;11.650;2022-11-30T07:17:12;13.93;;;10.90;;
14611;SDS011;7392;52.078;11.650;2022-11-30T07:19:39;14.13;;;10.73;;
14611;SDS011;7392;52.078;11.650;2022-11-30T07:22:07;15.20;;;11.10;;
14611;SDS011;7392;52.078;11.650;2022-11-30T07:24:35;14.97;;;11.17;;
14611;SDS011;7392;52.078;11.650;2022-11-30T07:27:20;14.60;;;10.80;;
14611;SDS011;7392;52.078;11.650;2022-11-30T07:29:48;15.83;;;10.93;;
14611;SDS011;7392;52.078;11.650;2022-11-30T07:32:18;17.23;;;11.80;;
14611;SDS011;7392;52.078;11.650;2022-11-30T07:34:46;19.57;;;13.37;;
14611;SDS011;7392;52.078;11.650;2022-11-30T07:37:14;22.23;;;15.57;;
14611;SDS011;7392;52.078;11.650;2022-11-30T07:39:43;21.70;;;14.83;;
14611;SDS011;7392;52.078;11.650;2022-11-30T07:42:10;19.73;;;13.73;;
14611;SDS011;7392;52.078;11.650;2022-11-30T07:44:38;16.80;;;13.40;;
14611;SDS011;7392;52.078;11.650;2022-11-30T07:47:06;17.33;;;12.37;;
14611;SDS011;7392;52.078;11.650;2022-11-30T07:49:35;16.30;;;11.90;;
14611;SDS011;7392;52.078;11.650;2022-11-30T07:52:05;18.87;;;12.37;;
14611;SDS011;7392;52.078;11.650;2022-11-30T07:54:33;16.97;;;12.07;;
14611;SDS011;7392;52.078;11.650;2022-11-30T07:57:01;16.17;;;12.00;;
14611;SDS011;7392;52.078;11.650;2022-11-30T07:59:29;15.07;;;11.23;;
14611;SDS011;7392;52.078;11.650;2022-11-30T08:01:56;15.87;;;11.47;;
14611;SDS011;7392;52.078;11.650;2022-11-30T08:04:25;14.97;;;11.50;;
14611;SDS011;7392;52.078;11.650;2022-11-30T08:06:55;15.67;;;11.60;;
14611;SDS011;7392;52.078;11.650;2022-11-30T08:09:23;16.23;;;11.40;;
14611;SDS011;7392;52.078;11.650;2022-11-30T08:11:50;14.80;;;11.47;;
14611;SDS011;7392;52.078;11.650;2022-11-30T08:14:18;16.77;;;12.57;;
14611;SDS011;7392;52.078;11.650;2022-11-30T08:16:46;16.40;;;11.80;;
14611;SDS011;7392;52.078;11.650;2022-11-30T08:19:14;16.93;;;11.93;;
14611;SDS011;7392;52.078;11.650;2022-11-30T08:21:42;14.97;;;10.50;;
14611;SDS011;7392;52.078;11.650;2022-11-30T08:24:11;18.67;;;12.50;;
14611;SDS011;7392;52.078;11.650;2022-11-30T08:26:40;18.37;;;13.20;;
14611;SDS011;7392;52.078;11.650;2022-11-30T08:29:08;16.97;;;12.60;;
14611;SDS011;7392;52.078;11.650;2022-11-30T08:31:37;17.07;;;12.17;;
14611;SDS011;7392;52.078;11.650;2022-11-30T08:34:06;15.80;;;11.60;;
14611;SDS011;7392;52.078;11.650;2022-11-30T08:36:36;15.20;;;11.50;;
14611;SDS011;7392;52.078;11.650;2022-11-30T08:39:06;15.67;;;10.97;;
14611;SDS011;7392;52.078;11.650;2022-11-30T08:41:36;14.83;;;10.90;;
14611;SDS011;7392;52.078;11.650;2022-11-30T08:44:04;15.63;;;12.07;;
14611;SDS011;7392;52.078;11.650;2022-11-30T08:46:32;17.77;;;13.23;;
14611;SDS011;7392;52.078;11.650;2022-11-30T08:49:17;21.67;;;15.03;;
14611;SDS011;7392;52.078;11.650;2022-11-30T08:51:49;19.87;;;14.73;;
14611;SDS011;7392;52.078;11.650;2022-11-30T08:54:40;19.90;;;14.90;;
14611;SDS011;7392;52.078;11.650;2022-11-30T08:57:12;19.27;;;14.40;;
14611;SDS011;7392;52.078;11.650;2022-11-30T08:59:41;18.80;;;14.00;;
14611;SDS011;7392;52.078;11.650;2022-11-30T09:02:09;24.97;;;16.97;;
14611;SDS011;7392;52.078;11.650;2022-11-30T09:04:37;30.67;;;20.67;;
14611;SDS011;7392;52.078;11.650;2022-11-30T09:07:05;27.47;;;19.57;;
14611;SDS011;7392;52.078;11.650;2022-11-30T09:09:34;33.33;;;21.63;;
14611;SDS011;7392;52.078;11.650;2022-11-30T09:12:03;29.27;;;20.33;;
14611;SDS011;7392;52.078;11.650;2022-11-30T09:14:32;26.60;;;20.13;;
14611;SDS011;7392;52.078;11.650;2022-11-30T09:17:00;29.13;;;19.40;;
14611;SDS011;7392;52.078;11.650;2022-11-30T09:19:28;26.20;;;19.23;;
14611;SDS011;7392;52.078;11.650;2022-11-30T09:24:25;24.13;;;17.57;;
14611;SDS011;7392;52.078;11.650;2022-11-30T09:26:53;24.20;;;18.13;;
14611;SDS011;7392;52.078;11.650;2022-11-30T09:29:22;23.80;;;16.13;;
14611;SDS011;7392;52.078;11.650;2022-11-30T09:31:51;25.10;;;17.80;;
14611;SDS011;7392;52.078;11.650;2022-11-30T09:34:19;23.63;;;16.80;;
14611;SDS011;7392;52.078;11.650;2022-11-30T09:36:47;24.67;;;17.87;;
14611;SDS011;7392;52.078;11.650;2022-11-30T09:39:15;26.80;;;19.17;;
14611;SDS011;7392;52.078;11.650;2022-11-30T09:44:51;24.87;;;18.30;;
14611;SDS011;7392;52.078;11.650;2022-11-30T09:47:38;27.83;;;19.63;;
14611;SDS011;7392;52.078;11.650;2022-11-30T09:50:31;28.77;;;20.93;;
14611;SDS011;7392;52.078;11.650;2022-11-30T09:53:04;28.47;;;19.97;;
14611;SDS011;7392;52.078;11.650;2022-11-30T09:55:39;25.20;;;18.90;;
14611;SDS011;7392;52.078;11.650;2022-11-30T09:58:10;23.40;;;18.20;;
14611;SDS011;7392;52.078;11.650;2022-11-30T10:00:47;22.60;;;17.37;;
14611;SDS011;7392;52.078;11.650;2022-11-30T10:03:17;23.67;;;17.53;;
14611;SDS011;7392;52.078;11.650;2022-11-30T10:05:48;24.07;;;17.50;;
14611;SDS011;7392;52.078;11.650;2022-11-30T10:11:22;26.03;;;18.80;;
14611;SDS011;7392;52.078;11.650;2022-11-30T10:14:00;30.07;;;20.90;;
14611;SDS011;7392;52.078;11.650;2022-11-30T10:16:41;31.50;;;22.50;;
14611;SDS011;7392;52.078;11.650;2022-11-30T10:19:22;34.57;;;24.50;;
14611;SDS011;7392;52.078;11.650;2022-11-30T10:22:15;30.00;;;22.13;;
14611;SDS011;7392;52.078;11.650;2022-11-30T10:24:55;34.27;;;23.77;;
14611;SDS011;7392;52.078;11.650;2022-11-30T10:27:40;28.03;;;21.27;;
14611;SDS011;7392;52.078;11.650;2022-11-30T10:30:16;28.90;;;20.60;;
14611;SDS011;7392;52.078;11.650;2022-11-30T10:32:48;26.70;;;20.80;;
14611;SDS011;7392;52.078;11.650;2022-11-30T10:35:22;25.20;;;19.33;;
14611;SDS011;7392;52.078;11.650;2022-11-30T10:37:59;24.20;;;19.73;;
14611;SDS011;7392;52.078;11.650;2022-11-30T10:40:34;27.87;;;20.63;;
14611;SDS011;7392;52.078;11.650;2022-11-30T10:43:10;28.27;;;21.53;;
14611;SDS011;7392;52.078;11.650;2022-11-30T10:45:45;31.37;;;22.30;;
14611;SDS011;7392;52.078;11.650;2022-11-30T10:48:16;29.13;;;22.47;;
14611;SDS011;7392;52.078;11.650;2022-11-30T10:50:51;29.73;;;22.43;;
14611;SDS011;7392;52.078;11.650;2022-11-30T10:53:20;28.87;;;21.33;;
14611;SDS011;7392;52.078;11.650;2022-11-30T10:55:51;28.90;;;21.67;;
14611;SDS011;7392;52.078;11.650;2022-11-30T10:58:25;28.60;;;21.60;;
14611;SDS011;7392;52.078;11.650;2022-11-30T11:00:59;27.90;;;20.50;;
14611;SDS011;7392;52.078;11.650;2022-11-30T11:03:29;24.17;;;18.97;;
14611;SDS011;7392;52.078;11.650;2022-11-30T11:06:03;26.57;;;20.50;;
14611;SDS011;7392;52.078;11.650;2022-11-30T11:08:33;27.13;;;20.50;;
14611;SDS011;7392;52.078;11.650;2022-11-30T11:11:01;29.40;;;21.70;;
14611;SDS011;7392;52.078;11.650;2022-11-30T11:13:36;26.50;;;21.40;;
14611;SDS011;7392;52.078;11.650;2022-11-30T11:16:06;27.70;;;21.43;;
14611;SDS011;7392;52.078;11.650;2022-11-30T11:18:36;28.20;;;21.87;;
14611;SDS011;7392;52.078;11.650;2022-11-30T11:21:18;29.50;;;22.50;;
14611;SDS011;7392;52.078;11.650;2022-11-30T11:23:49;27.77;;;20.93;;
14611;SDS011;7392;52.078;11.650;2022-11-30T11:26:20;24.07;;;18.97;;
14611;SDS011;7392;52.078;11.650;2022-11-30T11:28:50;24.07;;;18.43;;
14611;SDS011;7392;52.078;11.650;2022-11-30T11:31:30;21.07;;;16.97;;
14611;SDS011;7392;52.078;11.650;2022-11-30T11:34:01;20.30;;;16.17;;
14611;SDS011;7392;52.078;11.650;2022-11-30T11:36:32;19.43;;;15.60;;
14611;SDS011;7392;52.078;11.650;2022-11-30T11:39:02;20.23;;;15.47;;
14611;SDS011;7392;52.078;11.650;2022-11-30T11:41:52;20.03;;;16.20;;
14611;SDS011;7392;52.078;11.650;2022-11-30T11:44:20;21.93;;;17.70;;
14611;SDS011;7392;52.078;11.650;2022-11-30T11:46:53;21.53;;;16.70;;
14611;SDS011;7392;52.078;11.650;2022-11-30T11:49:24;20.00;;;15.50;;
14611;SDS011;7392;52.078;11.650;2022-11-30T11:52:00;19.47;;;15.13;;
14611;SDS011;7392;52.078;11.650;2022-11-30T11:54:30;17.17;;;13.70;;
14611;SDS011;7392;52.078;11.650;2022-11-30T11:57:01;19.13;;;14.63;;
14611;SDS011;7392;52.078;11.650;2022-11-30T11:59:31;18.57;;;15.47;;
14611;SDS011;7392;52.078;11.650;2022-11-30T12:02:11;18.70;;;15.10;;
14611;SDS011;7392;52.078;11.650;2022-11-30T12:04:47;21.20;;;16.20;;
14611;SDS011;7392;52.078;11.650;2022-11-30T12:07:20;22.57;;;17.77;;
14611;SDS011;7392;52.078;11.650;2022-11-30T12:09:58;25.00;;;19.60;;
14611;SDS011;7392;52.078;11.650;2022-11-30T12:12:52;25.70;;;19.47;;
14611;SDS011;7392;52.078;11.650;2022-11-30T12:15:22;30.20;;;22.37;;
14611;SDS011;7392;52.078;11.650;2022-11-30T12:17:57;26.47;;;21.07;;
14611;SDS011;7392;52.078;11.650;2022-11-30T12:20:39;32.30;;;23.73;;
14611;SDS011;7392;52.078;11.650;2022-11-30T12:23:21;35.20;;;24.87;;
14611;SDS011;7392;52.078;11.650;2022-11-30T12:26:04;29.00;;;22.80;;
14611;SDS011;7392;52.078;11.650;2022-11-30T12:28:43;28.53;;;22.20;;
14611;SDS011;7392;52.078;11.650;2022-11-30T12:31:18;26.43;;;21.37;;
14611;SDS011;7392;52.078;11.650;2022-11-30T12:33:50;27.67;;;21.53;;
14611;SDS011;7392;52.078;11.650;2022-11-30T12:36:34;29.50;;;21.57;;
14611;SDS011;7392;52.078;11.650;2022-11-30T12:39:15;26.77;;;20.37;;
14611;SDS011;7392;52.078;11.650;2022-11-30T12:41:53;27.60;;;20.53;;
14611;SDS011;7392;52.078;11.650;2022-11-30T12:44:29;22.43;;;18.43;;
14611;SDS011;7392;52.078;11.650;2022-11-30T12:47:13;25.57;;;19.40;;
14611;SDS011;7392;52.078;11.650;2022-11-30T12:49:58;24.03;;;18.37;;
14611;SDS011;7392;52.078;11.650;2022-11-30T12:52:38;23.23;;;17.87;;
14611;SDS011;7392;52.078;11.650;2022-11-30T12:55:18;23.50;;;18.53;;
14611;SDS011;7392;52.078;11.650;2022-11-30T12:57:55;20.83;;;17.50;;
14611;SDS011;7392;52.078;11.650;2022-11-30T13:00:27;25.47;;;19.97;;
14611;SDS011;7392;52.078;11.650;2022-11-30T13:03:21;26.73;;;19.97;;
14611;SDS011;7392;52.078;11.650;2022-11-30T13:06:00;24.70;;;18.43;;
14611;SDS011;7392;52.078;11.650;2022-11-30T13:08:34;25.47;;;19.17;;
14611;SDS011;7392;52.078;11.650;2022-11-30T13:11:12;27.27;;;20.70;;
14611;SDS011;7392;52.078;11.650;2022-11-30T13:13:46;27.07;;;21.37;;
14611;SDS011;7392;52.078;11.650;2022-11-30T13:16:17;26.13;;;20.37;;
14611;SDS011;7392;52.078;11.650;2022-11-30T13:18:47;29.97;;;22.70;;
14611;SDS011;7392;52.078;11.650;2022-11-30T13:21:18;31.63;;;22.87;;
14611;SDS011;7392;52.078;11.650;2022-11-30T13:23:56;28.63;;;22.37;;
14611;SDS011;7392;52.078;11.650;2022-11-30T13:26:35;26.73;;;21.23;;
14611;SDS011;7392;52.078;11.650;2022-11-30T13:29:21;25.47;;;18.83;;
14611;SDS011;7392;52.078;11.650;2022-11-30T13:32:06;23.37;;;18.43;;
14611;SDS011;7392;52.078;11.650;2022-11-30T13:38:01;21.47;;;16.53;;
14611;SDS011;7392;52.078;11.650;2022-11-30T13:40:51;20.97;;;15.43;;
14611;SDS011;7392;52.078;11.650;2022-11-30T13:43:22;20.33;;;16.03;;
14611;SDS011;7392;52.078;11.650;2022-11-30T13:46:02;26.40;;;19.33;;
14611;SDS011;7392;52.078;11.650;2022-11-30T13:48:36;22.63;;;17.13;;
14611;SDS011;7392;52.078;11.650;2022-11-30T13:51:06;21.43;;;16.67;;
14611;SDS011;7392;52.078;11.650;2022-11-30T13:53:34;20.43;;;16.13;;
14611;SDS011;7392;52.078;11.650;2022-11-30T13:59:32;20.40;;;14.97;;
14611;SDS011;7392;52.078;11.650;2022-11-30T14:05:35;20.70;;;17.13;;
14611;SDS011;7392;52.078;11.650;2022-11-30T14:08:08;20.03;;;15.93;;
14611;SDS011;7392;52.078;11.650;2022-11-30T14:10:38;17.70;;;15.03;;
14611;SDS011;7392;52.078;11.650;2022-11-30T14:15:57;17.97;;;14.30;;
14611;SDS011;7392;52.078;11.650;2022-11-30T14:18:39;19.30;;;15.03;;
14611;SDS011;7392;52.078;11.650;2022-11-30T14:23:57;16.23;;;13.27;;
14611;SDS011;7392;52.078;11.650;2022-11-30T14:26:31;14.13;;;11.37;;
14611;SDS011;7392;52.078;11.650;2022-11-30T14:29:04;15.70;;;12.40;;
14611;SDS011;7392;52.078;11.650;2022-11-30T14:31:47;17.47;;;14.10;;
14611;SDS011;7392;52.078;11.650;2022-11-30T14:34:22;18.27;;;14.67;;
14611;SDS011;7392;52.078;11.650;2022-11-30T14:36:55;18.90;;;14.83;;
14611;SDS011;7392;52.078;11.650;2022-11-30T14:39:27;18.17;;;14.13;;
14611;SDS011;7392;52.078;11.650;2022-11-30T14:41:59;16.43;;;13.70;;
14611;SDS011;7392;52.078;11.650;2022-11-30T14:44:30;15.23;;;12.33;;
14611;SDS011;7392;52.078;11.650;2022-11-30T14:47:12;14.20;;;12.30;;
14611;SDS011;7392;52.078;11.650;2022-11-30T14:49:48;14.37;;;11.73;;
14611;SDS011;7392;52.078;11.650;2022-11-30T14:52:20;14.47;;;11.60;;
14611;SDS011;7392;52.078;11.650;2022-11-30T14:55:05;13.13;;;10.20;;
14611;SDS011;7392;52.078;11.650;2022-11-30T14:57:43;10.97;;;9.33;;
14611;SDS011;7392;52.078;11.650;2022-11-30T15:00:17;12.03;;;9.17;;
14611;SDS011;7392;52.078;11.650;2022-11-30T15:02:48;11.47;;;9.10;;
14611;SDS011;7392;52.078;11.650;2022-11-30T15:05:17;11.47;;;9.20;;
14611;SDS011;7392;52.078;11.650;2022-11-30T15:07:48;9.23;;;7.93;;
14611;SDS011;7392;52.078;11.650;2022-11-30T15:10:17;10.03;;;8.13;;
14611;SDS011;7392;52.078;11.650;2022-11-30T15:12:55;8.93;;;7.43;;
14611;SDS011;7392;52.078;11.650;2022-11-30T15:15:24;10.27;;;7.90;;